Sunday, December 21, 2014, 11:31 AM EST

KOXB, Ocean City Municipal Airport

Location: Berlin, MD, United States Lat: 38.317
Local Time: 11:31 AM EST (16:31 GMT) Lon: -75.117
Time Zone: US/Eastern Elev: 13 ft

Show me the last for .
Show Decoded

2014-12-21 10:53 METAR KOXB 211553Z AUTO 01008KT 7SM OVC070 03/M04 A3035 RMK AO2 SLP276 T00281044
                 TSNO =
2014-12-21 09:53 METAR KOXB 211453Z AUTO 35005KT 7SM OVC070 02/M02 A3035 RMK AO2 SLP277 T00221022
                 53007 TSNO =
2014-12-21 08:53 METAR KOXB 211353Z AUTO 34003KT 6SM HZ OVC070 01/M03 A3034 RMK AO2 SLP274
                 T00061028 TSNO =
2014-12-21 07:53 METAR KOXB 211253Z AUTO 33003KT 6SM HZ OVC070 00/M03 A3034 RMK AO2 SLP272
                 T00001028 TSNO =
2014-12-21 06:53 METAR KOXB 211153Z AUTO 00000KT 7SM OVC075 M01/M03 A3033 RMK AO2 SLP270
                 T10061028 11006 21039 53009 TSNO =
2014-12-21 05:53 METAR KOXB 211053Z AUTO 33003KT 8SM OVC075 M01/M03 A3031 RMK AO2 SLP263
                 T10061028 TSNO =
2014-12-21 04:53 METAR KOXB 210953Z AUTO 00000KT 8SM OVC080 M01/M03 A3030 RMK AO2 SLP261
                 T10061033 TSNO =
2014-12-21 03:53 METAR KOXB 210853Z AUTO 00000KT 8SM OVC080 M01/M03 A3030 RMK AO2 SLP261
                 T10061028 51003 TSNO =
2014-12-21 02:53 METAR KOXB 210753Z AUTO 33003KT 7SM OVC085 M01/M03 A3030 RMK AO2 SLP259
                 T10111033 TSNO =
2014-12-21 01:53 METAR KOXB 210653Z AUTO 33003KT 6SM BR OVC095 M03/M04 A3030 RMK AO2 SLP260
                 T10281044 TSNO =
2014-12-21 00:53 METAR KOXB 210553Z AUTO 33003KT 6SM BR CLR M04/M06 A3029 RMK AO2 SLP257 I1000
                 I6000 T10441056 10006 21044 58004 TSNO =
2014-12-20 23:53 METAR KOXB 210453Z AUTO 33004KT 7SM FEW110 M04/M05 A3030 RMK AO2 SLP260 I1000
                 T10441050 400391056 TSNO =
2014-12-20 22:53 METAR KOXB 210353Z AUTO 33003KT 7SM CLR M04/M06 A3030 RMK AO2 SLP260 I1000
                 T10391056 TSNO =
2014-12-20 21:53 METAR KOXB 210253Z AUTO 00000KT 7SM FEW110 M03/M05 A3030 RMK AO2 SLP261
                 T10331050 53002 TSNO =
2014-12-20 20:53 METAR KOXB 210153Z AUTO 32003KT 9SM CLR M02/M04 A3030 RMK AO2 SLP259 T10221039
                 TSNO =
2014-12-20 19:53 METAR KOXB 210053Z AUTO 34004KT 10SM CLR M02/M04 A3030 RMK AO2 SLP259 T10171039
                 TSNO =
2014-12-20 18:53 METAR KOXB 202353Z AUTO 00000KT 10SM SCT120 01/M03 A3030 RMK AO2 SLP260
                 T00061033 10039 20000 53011 TSNO =
2014-12-20 17:53 METAR KOXB 202253Z AUTO 00000KT 10SM BKN110 01/M03 A3028 RMK AO2 SLP254
                 T00061033 TSNO =
2014-12-20 16:53 METAR KOXB 202153Z AUTO 00000KT 10SM OVC100 02/M04 A3027 RMK AO2 SLP251
                 T00221039 TSNO =
2014-12-20 15:53 METAR KOXB 202053Z AUTO 00000KT 10SM BKN110 03/M04 A3027 RMK AO2 SLP249
                 T00281039 55000 TSNO =
2014-12-20 14:53 METAR KOXB 201953Z AUTO 14004KT 10SM FEW032 03/M04 A3026 RMK AO2 SLP246
                 T00331039 TSNO =
2014-12-20 13:53 METAR KOXB 201853Z AUTO 00000KT 10SM CLR 03/M04 A3026 RMK AO2 SLP247 T00331044
                 TSNO =
2014-12-20 12:53 METAR KOXB 201753Z AUTO 36003KT 10SM CLR 02/M04 A3027 RMK AO2 SLP249 T00221039
                 10022 21056 58019 TSNO =
2014-12-20 11:53 METAR KOXB 201653Z AUTO 32004KT 10SM CLR 02/M04 A3030 RMK AO2 SLP260 T00221039
                 TSNO =

Support USWX by starting your Amazon purchase here.